Time;durP1;ratioP1;P1;durP2;ratioP2;P2;SDS_P1;SDS_P2;PMS_P1;PMS_P2;Temp;Humidity;BMP_temperature;BMP_pressure;BME280_temperature;BME280_humidity;BME280_pressure;Samples;Min_cycle;Max_cycle;Signal;HPM_P1;HPM_P2
2021/12/18 00:02:19;;;;;;;2.22;1.40;;;17.50;62.10;;;;;;5050982;28;20179;-62
2021/12/18 00:04:44;;;;;;;1.40;1.30;;;17.50;62.00;;;;;;5051947;28;20225;-61
2021/12/18 00:07:10;;;;;;;2.15;1.50;;;17.50;62.00;;;;;;5052159;28;20182;-61
2021/12/18 00:09:35;;;;;;;2.05;1.33;;;17.50;62.10;;;;;;5050865;28;20198;-60
2021/12/18 00:12:01;;;;;;;1.58;1.30;;;17.40;62.00;;;;;;5051986;28;20167;-61
2021/12/18 00:14:27;;;;;;;1.30;1.20;;;17.40;61.90;;;;;;5051609;28;20228;-61
2021/12/18 00:16:52;;;;;;;1.52;1.42;;;17.40;62.00;;;;;;5051103;28;20221;-61
2021/12/18 00:19:24;;;;;;;1.40;1.30;;;17.40;62.00;;;;;;5051319;28;20576;-61
2021/12/18 00:21:49;;;;;;;1.42;1.33;;;17.40;62.00;;;;;;5051702;28;20269;-60
2021/12/18 00:24:19;;;;;;;1.20;1.10;;;17.40;62.00;;;;;;5050867;28;20320;-61
2021/12/18 00:26:44;;;;;;;1.52;1.42;;;17.40;62.00;;;;;;5051657;28;20186;-60
2021/12/18 00:29:10;;;;;;;1.30;1.20;;;17.30;61.90;;;;;;5051486;28;20183;-61
2021/12/18 00:31:35;;;;;;;1.75;1.65;;;17.30;62.00;;;;;;5050441;28;20175;-61
2021/12/18 00:34:01;;;;;;;2.00;1.35;;;17.30;61.90;;;;;;5051737;28;20178;-61
2021/12/18 00:36:26;;;;;;;1.65;1.52;;;17.30;61.90;;;;;;5051204;28;20175;-61
2021/12/18 00:38:52;;;;;;;1.50;1.33;;;17.30;61.90;;;;;;5050751;28;20643;-60
2021/12/18 00:44:02;;;;;;;2.35;1.60;;;17.30;61.90;;;;;;5050959;28;20167;-62
2021/12/18 00:46:32;;;;;;;1.73;1.25;;;17.30;61.90;;;;;;5051218;28;20280;-61
2021/12/18 00:48:57;;;;;;;1.33;1.23;;;17.30;61.90;;;;;;5051946;28;20179;-60
2021/12/18 00:51:23;;;;;;;2.13;1.20;;;17.20;61.90;;;;;;5050452;28;20704;-60
2021/12/18 00:53:48;;;;;;;1.30;1.20;;;17.20;61.80;;;;;;5051336;28;20530;-60
2021/12/18 00:56:14;;;;;;;1.70;1.30;;;17.20;61.90;;;;;;5051405;28;20187;-61
2021/12/18 00:58:40;;;;;;;1.20;1.10;;;17.30;61.90;;;;;;5050144;28;20228;-62
2021/12/18 01:01:08;;;;;;;1.20;1.00;;;17.20;61.80;;;;;;5051284;28;20528;-61
2021/12/18 01:03:35;;;;;;;1.27;1.17;;;17.20;61.90;;;;;;5050809;28;20579;-60
2021/12/18 01:06:04;;;;;;;1.40;1.30;;;17.20;61.90;;;;;;5050456;28;20183;-60
2021/12/18 01:08:29;;;;;;;1.55;1.45;;;17.20;61.90;;;;;;5050751;28;20206;-60
2021/12/18 01:11:17;;;;;;;1.27;1.02;;;17.20;61.80;;;;;;5051024;28;20266;-60
2021/12/18 01:13:56;;;;;;;1.30;1.20;;;17.20;61.80;;;;;;5050351;28;20479;-61
2021/12/18 01:16:24;;;;;;;1.20;1.10;;;17.20;61.80;;;;;;5051056;28;20187;-61
2021/12/18 01:24:18;;;;;;;1.20;1.10;;;17.20;61.80;;;;;;5050819;28;20236;-60
2021/12/18 01:26:44;;;;;;;1.30;1.20;;;17.10;61.90;;;;;;5050377;28;20214;-62
2021/12/18 01:29:09;;;;;;;1.00;1.00;;;17.10;61.70;;;;;;5050961;28;20338;-61
2021/12/18 01:31:35;;;;;;;0.93;0.93;;;17.10;61.70;;;;;;5052074;28;20575;-61
2021/12/18 01:34:00;;;;;;;1.38;1.10;;;17.10;61.70;;;;;;5054183;28;20177;-63
2021/12/18 01:36:28;;;;;;;1.17;1.10;;;17.10;61.70;;;;;;5054425;28;20183;-61
2021/12/18 01:38:54;;;;;;;2.42;1.40;;;17.10;61.70;;;;;;5054566;28;20545;-62
2021/12/18 01:41:20;;;;;;;1.35;1.20;;;17.10;61.70;;;;;;5053780;28;20174;-61
2021/12/18 01:46:39;;;;;;;1.45;1.02;;;17.10;61.70;;;;;;5054399;28;20222;-61
2021/12/18 01:54:23;;;;;;;1.08;1.00;;;17.10;61.60;;;;;;5053506;28;20690;-60
2021/12/18 01:56:49;;;;;;;1.30;1.20;;;17.10;61.70;;;;;;5054216;28;20275;-60
2021/12/18 01:59:15;;;;;;;2.33;1.15;;;17.00;61.60;;;;;;5054164;28;20171;-62
2021/12/18 02:01:40;;;;;;;0.90;0.90;;;17.00;61.60;;;;;;5053204;28;20245;-60
2021/12/18 02:04:06;;;;;;;0.95;0.95;;;17.00;62.40;;;;;;5054147;28;20261;-62
2021/12/18 02:06:31;;;;;;;1.23;1.13;;;17.00;61.60;;;;;;5053801;28;20634;-60
2021/12/18 02:08:57;;;;;;;1.10;1.00;;;17.00;61.50;;;;;;5052062;28;20179;-61
2021/12/18 02:11:28;;;;;;;1.10;1.00;;;17.00;61.60;;;;;;5053437;28;20217;-60
2021/12/18 02:14:24;;;;;;;0.80;0.80;;;17.00;61.60;;;;;;5054066;28;20498;-60
2021/12/18 02:19:57;;;;;;;1.30;1.20;;;17.00;61.50;;;;;;5051633;28;20183;-61
2021/12/18 02:22:24;;;;;;;1.25;1.15;;;17.00;61.50;;;;;;5052599;28;20523;-59
2021/12/18 02:24:53;;;;;;;1.20;1.10;;;17.00;61.50;;;;;;5053935;28;20190;-61
2021/12/18 02:27:18;;;;;;;1.23;1.10;;;17.00;61.50;;;;;;5053727;28;20175;-61
2021/12/18 02:29:47;;;;;;;0.93;0.93;;;16.90;61.40;;;;;;5052789;28;20203;-60
2021/12/18 02:32:15;;;;;;;1.08;1.00;;;17.00;61.50;;;;;;5053920;28;20261;-61
2021/12/18 02:34:41;;;;;;;1.05;1.02;;;16.90;61.40;;;;;;5053118;28;20256;-60
2021/12/18 02:37:09;;;;;;;1.65;1.15;;;17.00;61.50;;;;;;5052861;28;20172;-61
2021/12/18 02:40:46;;;;;;;1.00;0.90;;;16.90;61.40;;;;;;5053318;28;20181;-61
2021/12/18 02:42:32;;;;;;;1.23;1.10;;;16.90;61.50;;;;;;5052052;28;20653;-61
2021/12/18 02:44:58;;;;;;;1.17;1.08;;;16.90;61.40;;;;;;5052518;28;20710;-61
2021/12/18 02:47:23;;;;;;;0.95;0.95;;;16.90;61.40;;;;;;5052860;28;20352;-61
2021/12/18 02:49:50;;;;;;;1.38;1.20;;;16.90;61.40;;;;;;5053270;28;20692;-61
2021/12/18 02:52:17;;;;;;;1.90;1.00;;;16.90;61.40;;;;;;5052701;28;20178;-60
2021/12/18 02:54:43;;;;;;;1.38;1.17;;;16.90;61.40;;;;;;5052798;28;20258;-61
2021/12/18 02:57:09;;;;;;;1.33;1.20;;;16.90;61.40;;;;;;5053106;28;20313;-61
2021/12/18 02:59:48;;;;;;;1.30;1.20;;;16.90;61.40;;;;;;5051978;28;20538;-62
2021/12/18 03:02:14;;;;;;;1.10;1.02;;;16.90;61.40;;;;;;5052880;28;20179;-62
2021/12/18 03:04:42;;;;;;;1.25;1.10;;;16.90;61.40;;;;;;5052241;28;20176;-62
2021/12/18 03:07:10;;;;;;;1.10;1.08;;;16.90;61.40;;;;;;5053032;28;20557;-61
2021/12/18 03:19:00;;;;;;;0.95;0.90;;;16.90;61.40;;;;;;5052392;28;20269;-61
2021/12/18 03:21:56;;;;;;;0.90;0.90;;;16.80;61.30;;;;;;5052547;28;20248;-60
2021/12/18 03:24:08;;;;;;;0.88;0.88;;;16.80;61.30;;;;;;5052495;28;20187;-61
2021/12/18 03:26:33;;;;;;;0.90;0.90;;;16.80;61.30;;;;;;5051326;28;20199;-61
2021/12/18 03:28:59;;;;;;;1.00;1.00;;;16.80;61.30;;;;;;5052809;28;20697;-61
2021/12/18 03:31:24;;;;;;;1.35;1.25;;;16.80;61.20;;;;;;5052153;28;20280;-61
2021/12/18 03:33:50;;;;;;;0.82;0.82;;;16.80;62.20;;;;;;5051620;28;20696;-63
2021/12/18 03:36:15;;;;;;;1.20;1.13;;;16.80;61.30;;;;;;5052597;28;20207;-61
2021/12/18 03:38:41;;;;;;;1.30;1.20;;;16.80;61.30;;;;;;5052186;28;20269;-62
2021/12/18 03:41:06;;;;;;;1.00;0.93;;;16.80;61.30;;;;;;5051496;28;20255;-61
2021/12/18 03:43:32;;;;;;;1.23;1.13;;;16.80;61.30;;;;;;5051891;28;20532;-62
2021/12/18 03:45:57;;;;;;;1.25;1.08;;;16.80;61.20;;;;;;5052113;28;20218;-60
2021/12/18 03:48:23;;;;;;;0.90;0.90;;;16.80;61.30;;;;;;5051309;28;20163;-60
2021/12/18 03:50:52;;;;;;;1.25;1.08;;;16.80;61.20;;;;;;5052260;28;20214;-60
2021/12/18 03:53:18;;;;;;;0.90;0.90;;;16.70;61.20;;;;;;5051982;28;20559;-61
2021/12/18 03:55:44;;;;;;;1.33;1.23;;;16.80;61.30;;;;;;5051247;28;20258;-61
2021/12/18 03:58:09;;;;;;;1.10;1.00;;;16.80;61.20;;;;;;5052265;28;20175;-61
2021/12/18 04:00:35;;;;;;;0.82;0.80;;;16.80;61.30;;;;;;5051234;28;20179;-61
2021/12/18 04:03:01;;;;;;;3.15;0.93;;;16.70;61.20;;;;;;5051806;28;20563;-62
2021/12/18 04:05:26;;;;;;;0.80;0.80;;;16.70;61.20;;;;;;5051468;28;20233;-61
2021/12/18 04:07:52;;;;;;;0.75;0.75;;;16.70;61.20;;;;;;5051100;28;20179;-61
2021/12/18 04:10:18;;;;;;;1.02;1.02;;;16.70;61.20;;;;;;5051597;28;20210;-61
2021/12/18 04:12:43;;;;;;;0.90;0.90;;;16.70;61.20;;;;;;5051301;28;20175;-60
2021/12/18 04:15:09;;;;;;;1.13;1.08;;;16.70;61.10;;;;;;5051198;28;20175;-61
2021/12/18 04:17:35;;;;;;;0.80;0.80;;;16.70;61.20;;;;;;5051524;28;20190;-60
2021/12/18 04:20:00;;;;;;;0.98;0.93;;;16.70;61.20;;;;;;5051600;28;20171;-60
2021/12/18 04:22:26;;;;;;;1.20;0.90;;;16.70;61.20;;;;;;5050522;28;20182;-59
2021/12/18 04:24:51;;;;;;;0.80;0.80;;;16.70;62.00;;;;;;5051441;28;20202;-61
2021/12/18 04:27:17;;;;;;;0.77;0.77;;;16.70;61.10;;;;;;5051189;28;20175;-61
2021/12/18 04:29:42;;;;;;;1.10;1.08;;;16.70;61.10;;;;;;5050649;28;20228;-61
2021/12/18 04:32:08;;;;;;;0.75;0.75;;;16.70;61.10;;;;;;5051613;28;20193;-62
2021/12/18 04:34:33;;;;;;;1.10;0.95;;;16.70;61.10;;;;;;5051557;28;20529;-60
2021/12/18 04:36:59;;;;;;;1.00;1.00;;;16.70;61.20;;;;;;5050865;28;20634;-61
2021/12/18 04:39:24;;;;;;;0.90;0.70;;;16.70;61.10;;;;;;5051027;28;20179;-62
2021/12/18 04:41:57;;;;;;;0.90;0.90;;;16.60;61.10;;;;;;5051508;28;20183;-61
2021/12/18 04:44:22;;;;;;;0.93;0.93;;;16.60;61.10;;;;;;5050473;28;20649;-60
2021/12/18 04:46:48;;;;;;;1.20;1.10;;;16.60;61.10;;;;;;5051317;28;20226;-61
2021/12/18 04:49:13;;;;;;;1.10;0.80;;;16.60;61.20;;;;;;5051733;28;20277;-60
2021/12/18 04:51:39;;;;;;;0.88;0.88;;;16.60;61.20;;;;;;5050523;28;20282;-60
2021/12/18 04:54:04;;;;;;;1.17;1.08;;;16.60;61.10;;;;;;5051404;28;20167;-60
2021/12/18 04:56:30;;;;;;;1.20;1.10;;;16.60;61.20;;;;;;5051042;28;20205;-61
2021/12/18 04:58:58;;;;;;;0.77;0.73;;;16.60;61.20;;;;;;5050909;28;20266;-61
2021/12/18 05:01:24;;;;;;;0.85;0.85;;;16.60;61.20;;;;;;5051174;28;20175;-62
2021/12/18 05:03:49;;;;;;;0.93;0.88;;;16.60;61.20;;;;;;5051262;28;20179;-62
2021/12/18 05:06:15;;;;;;;0.90;0.90;;;16.60;61.20;;;;;;5051676;28;20291;-61
2021/12/18 05:08:41;;;;;;;0.85;0.80;;;16.60;61.10;;;;;;5054908;28;20179;-60
2021/12/18 05:11:06;;;;;;;0.80;0.80;;;16.60;61.10;;;;;;5054623;28;20233;-60
2021/12/18 05:13:32;;;;;;;0.70;0.70;;;16.60;61.10;;;;;;5054912;28;20198;-60
2021/12/18 05:15:57;;;;;;;1.10;1.00;;;16.60;61.10;;;;;;5055172;28;20176;-60
2021/12/18 05:18:23;;;;;;;0.60;0.60;;;16.60;61.10;;;;;;5053983;28;20171;-60
2021/12/18 05:20:48;;;;;;;0.70;0.70;;;16.60;61.10;;;;;;5055108;28;20190;-60
2021/12/18 05:23:14;;;;;;;0.80;0.80;;;16.60;61.10;;;;;;5054710;28;20175;-60
2021/12/18 05:25:39;;;;;;;0.60;0.60;;;16.60;61.10;;;;;;5053807;28;20556;-60
2021/12/18 05:28:05;;;;;;;0.98;0.98;;;16.60;61.10;;;;;;5055075;28;20182;-62
2021/12/18 05:30:30;;;;;;;0.70;0.70;;;16.50;61.10;;;;;;5054218;28;20214;-62
2021/12/18 05:32:56;;;;;;;0.70;0.70;;;16.60;61.10;;;;;;5054200;28;20163;-61
2021/12/18 05:35:21;;;;;;;0.80;0.80;;;16.50;61.10;;;;;;5054273;28;20646;-62
2021/12/18 05:37:50;;;;;;;0.70;0.70;;;16.60;61.10;;;;;;5054591;28;20175;-61
2021/12/18 05:40:19;;;;;;;0.80;0.80;;;16.50;61.00;;;;;;5054131;28;20183;-61
2021/12/18 05:42:45;;;;;;;0.77;0.77;;;16.50;61.00;;;;;;5054572;28;20171;-60
2021/12/18 05:45:11;;;;;;;0.95;0.80;;;16.50;61.00;;;;;;5054624;28;20182;-60
2021/12/18 05:47:37;;;;;;;0.70;0.70;;;16.50;61.00;;;;;;5053535;28;20576;-61
2021/12/18 05:50:03;;;;;;;0.57;0.57;;;16.50;61.00;;;;;;5054203;28;20241;-60
2021/12/18 05:52:29;;;;;;;0.73;0.73;;;16.50;61.00;;;;;;5053917;28;20270;-60
2021/12/18 05:54:54;;;;;;;0.60;0.60;;;16.50;61.00;;;;;;5053798;28;20235;-61
2021/12/18 05:57:20;;;;;;;0.60;0.60;;;16.50;61.00;;;;;;5053798;28;20558;-62
2021/12/18 05:59:45;;;;;;;0.57;0.57;;;16.50;61.00;;;;;;5054224;28;20175;-61
2021/12/18 06:02:11;;;;;;;2.42;0.63;;;16.50;61.00;;;;;;5053372;28;20649;-61
2021/12/18 06:04:36;;;;;;;0.50;0.50;;;16.50;61.00;;;;;;5053766;28;20202;-62
2021/12/18 06:07:07;;;;;;;0.63;0.63;;;16.50;60.90;;;;;;5054040;28;20202;-61
2021/12/18 06:09:34;;;;;;;0.70;0.70;;;16.50;61.00;;;;;;5053093;28;20175;-60
2021/12/18 06:12:00;;;;;;;0.50;0.50;;;16.40;60.80;;;;;;5054132;28;20179;-60
2021/12/18 06:14:27;;;;;;;0.55;0.55;;;16.50;61.00;;;;;;5053128;28;20208;-61
2021/12/18 06:16:52;;;;;;;0.73;0.73;;;16.40;60.90;;;;;;5054011;28;20270;-61
2021/12/18 06:19:18;;;;;;;0.60;0.60;;;16.40;60.80;;;;;;5054155;28;20610;-62
2021/12/18 06:21:43;;;;;;;0.70;0.70;;;16.40;60.80;;;;;;5052970;28;20274;-61
2021/12/18 06:24:09;;;;;;;0.60;0.60;;;16.40;60.90;;;;;;5054003;28;20167;-63
2021/12/18 06:26:34;;;;;;;0.50;0.50;;;16.40;60.80;;;;;;5053327;28;20182;-61
2021/12/18 06:29:00;;;;;;;0.60;0.60;;;16.40;60.80;;;;;;5053079;28;20492;-61
2021/12/18 06:31:25;;;;;;;0.98;0.65;;;16.40;60.80;;;;;;5053439;28;20223;-59
2021/12/18 06:33:51;;;;;;;0.60;0.60;;;16.40;60.80;;;;;;5053641;28;20172;-61
2021/12/18 06:36:16;;;;;;;0.63;0.60;;;16.40;60.90;;;;;;5052738;28;20687;-61
2021/12/18 06:38:42;;;;;;;0.73;0.73;;;16.40;60.80;;;;;;5053282;28;20171;-61
2021/12/18 06:41:07;;;;;;;0.60;0.60;;;16.40;60.80;;;;;;5053545;28;20209;-61
2021/12/18 06:43:33;;;;;;;0.70;0.70;;;16.40;60.90;;;;;;5052705;28;20225;-61
2021/12/18 06:45:58;;;;;;;0.60;0.60;;;16.40;60.80;;;;;;5053533;28;20272;-60
2021/12/18 06:48:24;;;;;;;0.60;0.60;;;16.30;60.80;;;;;;5053179;28;20175;-60
2021/12/18 06:50:50;;;;;;;0.80;0.80;;;16.40;60.80;;;;;;5052676;28;20214;-60
2021/12/18 06:53:16;;;;;;;0.60;0.60;;;16.40;60.80;;;;;;5053495;28;20183;-60
2021/12/18 06:55:42;;;;;;;0.60;0.60;;;16.40;60.90;;;;;;5052861;28;20176;-60
2021/12/18 06:58:07;;;;;;;0.52;0.52;;;16.40;60.80;;;;;;5052448;28;20232;-62
2021/12/18 07:00:33;;;;;;;0.60;0.60;;;16.30;60.80;;;;;;5052880;28;20171;-62
2021/12/18 07:02:58;;;;;;;0.70;0.70;;;16.30;61.00;;;;;;5053137;28;20226;-61
2021/12/18 07:05:24;;;;;;;0.40;0.40;;;16.40;61.00;;;;;;5051913;28;20253;-61
2021/12/18 07:07:50;;;;;;;0.47;0.47;;;16.40;61.00;;;;;;5053098;28;20230;-61
2021/12/18 07:10:15;;;;;;;0.60;0.60;;;16.40;60.80;;;;;;5053086;28;20265;-60
2021/12/18 07:12:41;;;;;;;0.60;0.60;;;16.40;60.90;;;;;;5052206;28;20570;-60
2021/12/18 07:15:09;;;;;;;0.57;0.57;;;16.40;60.80;;;;;;5052861;28;20579;-59
2021/12/18 07:17:35;;;;;;;0.32;0.32;;;16.50;61.00;;;;;;5051849;28;20282;-60
2021/12/18 07:20:04;;;;;;;0.57;0.57;;;16.50;61.00;;;;;;5052608;28;20179;-60
2021/12/18 07:22:30;;;;;;;0.57;0.57;;;16.40;61.70;;;;;;5052487;28;20221;-60
2021/12/18 07:24:55;;;;;;;0.40;0.40;;;16.40;60.80;;;;;;5051917;28;20587;-61
2021/12/18 07:27:21;;;;;;;0.70;0.70;;;16.40;60.80;;;;;;5052350;28;20186;-61
2021/12/18 07:29:46;;;;;;;0.50;0.50;;;16.40;60.80;;;;;;5052174;28;20669;-61
2021/12/18 07:32:12;;;;;;;0.45;0.40;;;16.50;60.90;;;;;;5051868;28;20197;-61
2021/12/18 07:34:37;;;;;;;0.60;0.60;;;16.50;60.90;;;;;;5052167;28;20182;-61
2021/12/18 07:37:03;;;;;;;0.40;0.40;;;16.50;60.90;;;;;;5052854;28;20182;-61
2021/12/18 07:39:28;;;;;;;0.60;0.60;;;16.60;60.90;;;;;;5051357;28;20175;-61
2021/12/18 07:41:54;;;;;;;0.30;0.30;;;16.70;60.70;;;;;;5052493;28;20175;-62
2021/12/18 07:44:19;;;;;;;0.43;0.43;;;16.90;60.50;;;;;;5052093;28;20178;-60
2021/12/18 07:46:45;;;;;;;0.40;0.40;;;17.00;60.10;;;;;;5051310;28;20223;-60
2021/12/18 07:49:10;;;;;;;0.40;0.40;;;17.10;59.90;;;;;;5052068;28;20183;-60
2021/12/18 07:51:39;;;;;;;0.38;0.38;;;17.10;59.70;;;;;;5051995;28;20245;-60
2021/12/18 07:54:05;;;;;;;0.55;0.40;;;17.20;59.60;;;;;;5051474;28;20167;-60
2021/12/18 07:56:30;;;;;;;0.55;0.55;;;17.40;59.40;;;;;;5051887;28;20237;-61
2021/12/18 07:58:56;;;;;;;0.50;0.40;;;17.60;59.20;;;;;;5052063;28;20253;-61
2021/12/18 08:01:21;;;;;;;0.40;0.40;;;17.80;58.90;;;;;;5051028;28;20178;-62
2021/12/18 08:03:50;;;;;;;0.35;0.35;;;18.10;58.40;;;;;;5051959;28;20179;-61
2021/12/18 08:06:15;;;;;;;0.50;0.50;;;18.40;57.80;;;;;;5052084;28;20171;-60
2021/12/18 08:08:41;;;;;;;0.40;0.40;;;18.60;57.30;;;;;;5051057;28;20610;-66
2021/12/18 08:11:07;;;;;;;1.58;0.60;;;18.80;57.10;;;;;;5051947;28;20207;-64
2021/12/18 08:13:32;;;;;;;2.03;0.43;;;18.90;57.30;;;;;;5051576;28;20171;-65
2021/12/18 08:15:58;;;;;;;0.82;0.50;;;18.90;57.10;;;;;;5051201;28;20175;-64
2021/12/18 08:18:23;;;;;;;0.93;0.75;;;18.90;57.00;;;;;;5051474;28;20171;-64
2021/12/18 08:20:49;;;;;;;1.55;0.70;;;19.00;57.30;;;;;;5051546;28;20206;-66
2021/12/18 08:23:14;;;;;;;0.80;0.50;;;19.10;57.20;;;;;;5051705;28;20270;-64
2021/12/18 08:25:40;;;;;;;2.60;0.50;;;19.10;57.10;;;;;;5051755;28;20171;-66
2021/12/18 08:28:06;;;;;;;1.40;0.52;;;19.20;57.10;;;;;;5051168;28;20182;-66
2021/12/18 08:30:33;;;;;;;0.60;0.60;;;19.20;57.10;;;;;;5051266;28;20214;-67
2021/12/18 08:32:58;;;;;;;1.58;0.65;;;19.20;57.10;;;;;;5051458;28;20209;-67
2021/12/18 08:35:27;;;;;;;0.55;0.50;;;19.20;57.30;;;;;;5050653;28;20171;-69
2021/12/18 08:37:54;;;;;;;2.05;0.50;;;19.10;57.30;;;;;;5052867;28;20175;-68
2021/12/18 08:40:19;;;;;;;2.63;0.60;;;19.00;57.50;;;;;;5051565;28;20214;-68
2021/12/18 08:42:45;;;;;;;0.68;0.65;;;18.90;57.90;;;;;;5054458;28;20202;-67
2021/12/18 08:45:11;;;;;;;1.30;0.60;;;18.80;58.00;;;;;;5055689;28;20194;-66
2021/12/18 08:47:36;;;;;;;1.63;0.65;;;18.70;58.10;;;;;;5055262;28;20242;-66
2021/12/18 08:50:03;;;;;;;3.08;0.50;;;18.60;58.30;;;;;;5055413;28;20287;-66
2021/12/18 08:52:28;;;;;;;1.20;0.50;;;18.50;58.30;;;;;;5055376;28;20175;-68
2021/12/18 08:54:53;;;;;;;0.55;0.55;;;18.30;58.50;;;;;;5056330;28;20185;-65
2021/12/18 08:57:19;;;;;;;0.63;0.30;;;18.30;58.70;;;;;;5054887;28;20167;-66
2021/12/18 08:59:45;;;;;;;1.42;0.50;;;18.20;58.60;;;;;;5055333;28;20201;-67
2021/12/18 09:02:12;;;;;;;0.40;0.40;;;18.20;58.60;;;;;;5055407;28;20218;-65
2021/12/18 09:04:37;;;;;;;0.50;0.40;;;18.30;58.50;;;;;;5054369;28;20643;-67
2021/12/18 09:07:03;;;;;;;0.47;0.40;;;18.30;58.50;;;;;;5055616;28;20175;-65
2021/12/18 09:09:31;;;;;;;1.15;0.60;;;18.20;58.40;;;;;;5055074;28;20172;-62
2021/12/18 09:11:57;;;;;;;1.13;0.68;;;18.20;58.60;;;;;;5054678;28;20183;-65
2021/12/18 09:14:23;;;;;;;0.57;0.50;;;18.00;58.90;;;;;;5054224;28;20175;-65
2021/12/18 09:16:49;;;;;;;2.25;0.80;;;18.00;59.30;;;;;;5054825;28;20171;-64
2021/12/18 09:19:14;;;;;;;1.05;0.55;;;18.00;59.50;;;;;;5053733;28;20206;-65
2021/12/18 09:21:40;;;;;;;2.30;0.50;;;17.90;59.40;;;;;;5054743;28;20210;-64
2021/12/18 09:24:06;;;;;;;0.80;0.30;;;18.00;59.50;;;;;;5054810;28;20255;-64
2021/12/18 09:26:31;;;;;;;1.40;0.50;;;18.00;59.50;;;;;;5054321;28;20273;-65
2021/12/18 09:28:57;;;;;;;1.33;0.47;;;18.00;59.50;;;;;;5055000;28;20171;-65
2021/12/18 09:31:24;;;;;;;0.57;0.40;;;18.00;59.50;;;;;;5053505;28;20604;-65
2021/12/18 09:33:53;;;;;;;3.58;0.55;;;18.00;59.40;;;;;;5054300;28;20172;-68
2021/12/18 09:36:18;;;;;;;1.75;0.50;;;18.00;59.40;;;;;;5054372;28;20229;-68
2021/12/18 09:38:44;;;;;;;2.03;0.60;;;18.00;59.50;;;;;;5053507;28;20167;-67
2021/12/18 09:41:12;;;;;;;1.08;0.50;;;18.00;59.60;;;;;;5054317;28;20229;-65
2021/12/18 09:43:38;;;;;;;1.83;0.57;;;18.00;59.50;;;;;;5054444;28;20511;-66
2021/12/18 09:46:06;;;;;;;1.65;0.47;;;18.00;59.60;;;;;;5053774;28;20238;-65
2021/12/18 09:48:32;;;;;;;1.63;0.60;;;18.00;59.60;;;;;;5054230;28;20645;-65
2021/12/18 09:50:58;;;;;;;1.88;0.60;;;18.00;59.60;;;;;;5036846;28;20210;-64
2021/12/18 09:53:24;;;;;;;0.30;0.30;;;18.00;59.60;;;;;;5053024;28;20250;-65
2021/12/18 09:55:49;;;;;;;0.40;0.38;;;18.00;59.60;;;;;;5054505;28;20265;-65
2021/12/18 09:58:15;;;;;;;0.88;0.30;;;18.10;60.20;;;;;;5054167;28;20175;-67
2021/12/18 10:00:40;;;;;;;0.77;0.47;;;18.10;59.50;;;;;;5053608;28;20182;-68
2021/12/18 10:03:07;;;;;;;1.55;0.52;;;18.10;59.40;;;;;;5054286;28;20175;-66
2021/12/18 10:05:33;;;;;;;0.57;0.50;;;18.10;59.50;;;;;;5054065;28;20179;-67
2021/12/18 10:08:17;;;;;;;0.68;0.50;;;18.10;59.60;;;;;;5053711;28;20224;-66
2021/12/18 10:11:03;;;;;;;2.47;0.50;;;18.10;59.70;;;;;;5053568;28;20726;-65
2021/12/18 10:13:29;;;;;;;1.45;0.43;;;18.00;59.60;;;;;;5053190;28;20198;-66
2021/12/18 10:16:12;;;;;;;1.00;0.40;;;18.00;59.60;;;;;;5054184;28;20179;-65
2021/12/18 10:18:38;;;;;;;1.15;0.80;;;18.10;59.40;;;;;;5053695;28;20240;-65
2021/12/18 10:21:17;;;;;;;2.63;0.65;;;18.10;59.40;;;;;;5053174;28;20167;-65
2021/12/18 10:23:43;;;;;;;1.63;0.50;;;18.10;59.20;;;;;;5053359;28;20575;-67
2021/12/18 10:26:34;;;;;;;0.98;0.50;;;18.10;59.20;;;;;;5053990;28;20258;-66
2021/12/18 10:28:59;;;;;;;1.40;0.55;;;18.10;59.30;;;;;;5053160;28;20237;-64
2021/12/18 10:31:45;;;;;;;0.88;0.50;;;18.10;59.30;;;;;;5053348;28;20596;-67
2021/12/18 10:34:14;;;;;;;1.10;0.50;;;18.00;59.40;;;;;;5053843;28;20654;-64
2021/12/18 10:36:43;;;;;;;4.78;0.98;;;18.00;59.50;;;;;;5052868;28;20262;-68
2021/12/18 10:39:08;;;;;;;1.80;0.55;;;18.00;59.60;;;;;;5036403;28;20167;-67
2021/12/18 10:41:34;;;;;;;2.38;0.50;;;17.90;59.60;;;;;;5034671;28;20233;-67
2021/12/18 10:44:07;;;;;;;1.48;0.60;;;18.00;59.70;;;;;;5053494;28;20183;-65
2021/12/18 10:46:33;;;;;;;4.20;0.60;;;18.00;59.80;;;;;;5053204;28;20227;-67
2021/12/18 10:49:07;;;;;;;3.08;0.60;;;18.00;59.80;;;;;;5052867;28;20240;-66
2021/12/18 10:51:33;;;;;;;1.13;0.50;;;18.00;59.90;;;;;;5053185;28;20313;-65
2021/12/18 10:54:28;;;;;;;2.72;0.60;;;18.00;59.80;;;;;;5053506;28;20263;-63
2021/12/18 10:56:55;;;;;;;2.00;0.70;;;18.00;60.10;;;;;;5038341;28;20269;-64
2021/12/18 10:59:36;;;;;;;3.53;0.73;;;18.00;60.30;;;;;;5053094;28;20191;-65
2021/12/18 11:02:03;;;;;;;1.27;0.60;;;18.00;60.50;;;;;;5053313;28;20213;-69
2021/12/18 11:04:33;;;;;;;1.33;0.65;;;18.00;60.50;;;;;;5051440;28;20182;-66
2021/12/18 11:06:59;;;;;;;4.30;0.68;;;18.00;60.30;;;;;;5053250;28;20285;-67
2021/12/18 11:09:31;;;;;;;3.00;0.60;;;18.00;60.20;;;;;;5052576;28;20167;-64
2021/12/18 11:14:38;;;;;;;4.00;0.57;;;18.10;59.90;;;;;;5052493;28;20174;-62
2021/12/18 11:17:05;;;;;;;3.28;0.60;;;18.20;59.90;;;;;;5052146;28;20183;-64
2021/12/18 11:19:32;;;;;;;4.32;1.05;;;18.10;59.90;;;;;;5052387;28;20171;-64
2021/12/18 11:22:05;;;;;;;3.78;0.80;;;18.10;60.00;;;;;;5052159;28;20179;-64
2021/12/18 11:24:38;;;;;;;2.15;0.60;;;18.10;60.10;;;;;;5049147;28;20218;-63
2021/12/18 11:27:08;;;;;;;3.60;0.85;;;18.00;60.10;;;;;;5052058;28;20186;-63
2021/12/18 11:29:46;;;;;;;3.30;0.60;;;18.00;60.30;;;;;;5051737;28;20265;-64
2021/12/18 11:32:16;;;;;;;4.63;0.52;;;18.00;60.30;;;;;;5048039;28;20186;-63
2021/12/18 11:34:42;;;;;;;1.67;0.40;;;18.00;60.20;;;;;;5051678;28;20172;-65
2021/12/18 11:37:09;;;;;;;1.77;0.60;;;18.10;60.20;;;;;;5052057;28;20305;-65
2021/12/18 11:39:35;;;;;;;2.78;0.60;;;18.10;60.10;;;;;;5050109;28;20171;-66
2021/12/18 11:42:03;;;;;;;0.60;0.50;;;18.10;60.00;;;;;;5051057;28;20186;-69
2021/12/18 11:44:44;;;;;;;4.30;0.80;;;18.10;60.00;;;;;;5051946;28;20183;-70
2021/12/18 11:47:27;;;;;;;2.08;0.32;;;18.10;60.00;;;;;;5051627;28;20241;-71
2021/12/18 11:50:00;;;;;;;1.35;0.60;;;18.00;60.20;;;;;;5052504;28;20352;-73
2021/12/18 11:52:27;;;;;;;2.70;0.55;;;18.00;60.30;;;;;;5051131;28;20677;-62
2021/12/18 11:54:55;;;;;;;0.98;0.50;;;17.90;60.40;;;;;;5052168;28;20178;-62
2021/12/18 11:57:37;;;;;;;1.08;0.50;;;17.90;60.50;;;;;;5052210;28;20179;-67
2021/12/18 12:00:10;;;;;;;0.52;0.43;;;17.90;60.30;;;;;;5051609;28;20267;-65
2021/12/18 12:02:43;;;;;;;2.38;0.80;;;17.90;60.30;;;;;;5051750;28;20167;-66
2021/12/18 12:05:08;;;;;;;1.02;0.50;;;17.90;60.20;;;;;;5051970;28;20179;-66
2021/12/18 12:07:35;;;;;;;1.85;0.50;;;18.00;60.20;;;;;;5050819;28;20266;-66
2021/12/18 12:10:13;;;;;;;2.20;0.60;;;18.00;60.10;;;;;;5050603;28;20210;-66
2021/12/18 12:12:49;;;;;;;3.42;0.80;;;18.00;60.00;;;;;;5051646;28;20201;-65
2021/12/18 12:15:15;;;;;;;4.80;0.60;;;18.00;60.00;;;;;;5050950;28;20178;-65
2021/12/18 12:17:56;;;;;;;2.65;0.63;;;18.00;59.90;;;;;;5051558;28;20177;-66
2021/12/18 12:20:36;;;;;;;0.50;0.50;;;18.00;60.00;;;;;;5050949;28;20183;-67
2021/12/18 12:23:02;;;;;;;1.48;0.40;;;17.90;60.10;;;;;;5052276;28;20171;-65
2021/12/18 12:25:42;;;;;;;1.70;0.82;;;17.90;60.40;;;;;;5051149;28;20179;-66
2021/12/18 12:28:11;;;;;;;1.33;0.45;;;18.00;60.50;;;;;;5050915;28;20179;-65
2021/12/18 12:30:43;;;;;;;1.65;0.50;;;17.90;60.40;;;;;;5051212;28;20264;-72
2021/12/18 12:33:19;;;;;;;3.03;0.82;;;18.00;60.40;;;;;;5051453;28;20246;-66
2021/12/18 12:36:01;;;;;;;3.97;0.77;;;18.00;60.50;;;;;;5050025;28;20266;-67
2021/12/18 12:38:35;;;;;;;2.75;0.80;;;18.00;60.50;;;;;;5050912;28;20179;-70
2021/12/18 12:41:24;;;;;;;3.45;0.77;;;18.00;60.60;;;;;;5052477;28;20210;-68
2021/12/18 12:43:50;;;;;;;6.18;0.70;;;17.90;60.60;;;;;;5060350;28;20178;-69
2021/12/18 12:46:16;;;;;;;2.25;0.60;;;17.90;60.70;;;;;;5060033;28;20242;-70
2021/12/18 12:49:03;;;;;;;1.73;0.70;;;17.80;60.60;;;;;;5050656;28;20179;-69
2021/12/18 12:52:04;;;;;;;0.90;0.57;;;17.80;60.80;;;;;;5062521;28;20210;-68
2021/12/18 12:54:45;;;;;;;2.17;0.60;;;17.80;61.00;;;;;;5051097;28;20181;-70
2021/12/18 12:57:23;;;;;;;2.22;0.70;;;17.70;61.00;;;;;;5050683;28;20626;-69
2021/12/18 12:59:53;;;;;;;2.30;0.60;;;17.70;61.10;;;;;;5068987;28;20596;-69
2021/12/18 13:02:20;;;;;;;1.70;0.88;;;17.70;61.20;;;;;;5069240;28;20183;-72
2021/12/18 13:04:49;;;;;;;1.00;0.60;;;17.60;61.20;;;;;;5071375;28;20174;-69
2021/12/18 13:07:14;;;;;;;1.95;0.52;;;17.60;61.30;;;;;;5070369;28;20199;-72
2021/12/18 13:09:44;;;;;;;3.88;0.70;;;17.60;61.30;;;;;;5070685;28;20193;-70
2021/12/18 13:12:10;;;;;;;1.00;0.63;;;17.60;61.40;;;;;;5066516;28;20279;-68
2021/12/18 13:14:37;;;;;;;1.00;0.57;;;17.50;61.40;;;;;;5051107;28;20638;-67
2021/12/18 13:17:25;;;;;;;2.25;0.60;;;17.50;61.40;;;;;;5050690;28;20187;-66
2021/12/18 13:20:05;;;;;;;2.33;0.70;;;17.60;61.30;;;;;;5051173;28;20634;-66
2021/12/18 13:22:33;;;;;;;1.67;0.73;;;17.70;61.10;;;;;;5050986;28;20290;-65
2021/12/18 13:25:14;;;;;;;1.73;0.55;;;17.80;60.90;;;;;;5050604;28;20206;-66